createdAt,value
2023-04-22T00:01:50.400Z,3.08
2023-04-22T00:03:54.106Z,3.92
2023-04-22T00:05:57.798Z,3.00
2023-04-22T00:08:01.282Z,3.33
2023-04-22T00:10:26.748Z,3.00
2023-04-22T00:12:30.252Z,3.15
2023-04-22T00:14:35.389Z,3.10
2023-04-22T00:16:38.984Z,3.03
2023-04-22T00:18:42.783Z,2.58
2023-04-22T00:20:46.568Z,2.83
2023-04-22T00:22:50.433Z,2.75
2023-04-22T00:24:53.926Z,2.55
2023-04-22T00:26:57.463Z,2.63
2023-04-22T00:29:10.604Z,2.50
2023-04-22T00:31:15.665Z,2.50
2023-04-22T00:33:19.242Z,2.15
2023-04-22T00:35:23.295Z,2.55
2023-04-22T00:37:26.918Z,2.38
2023-04-22T00:39:30.733Z,2.53
2023-04-22T00:41:34.255Z,2.58
2023-04-22T00:43:37.914Z,2.78
2023-04-22T00:46:01.652Z,2.83
2023-04-22T00:48:06.946Z,2.45
2023-04-22T00:50:10.730Z,2.58
2023-04-22T00:52:14.338Z,2.75
2023-04-22T00:54:18.133Z,2.50
2023-04-22T00:56:21.989Z,2.55
2023-04-22T00:58:26.835Z,2.75
2023-04-22T01:00:30.340Z,2.42
2023-04-22T01:02:53.168Z,2.63
2023-04-22T01:04:58.182Z,2.20
2023-04-22T01:07:01.974Z,2.60
2023-04-22T01:09:05.612Z,2.50
2023-04-22T01:11:08.942Z,2.42
2023-04-22T01:13:12.581Z,2.50
2023-04-22T01:15:15.891Z,2.40
2023-04-22T01:17:20.343Z,2.30
2023-04-22T01:19:24.259Z,2.58
2023-04-22T01:21:29.773Z,2.80
2023-04-22T01:23:35.008Z,2.58
2023-04-22T01:25:38.568Z,3.38
2023-04-22T01:27:42.158Z,3.47
2023-04-22T01:29:45.717Z,3.85
2023-04-22T01:31:49.449Z,4.28
2023-04-22T01:33:54.159Z,4.57
2023-04-22T01:36:13.321Z,4.30
2023-04-22T01:38:16.915Z,4.60
2023-04-22T01:40:22.832Z,4.85
2023-04-22T01:42:26.576Z,5.00
2023-04-22T01:44:30.413Z,5.20
2023-04-22T01:46:34.797Z,5.72
2023-04-22T01:48:39.256Z,5.60
2023-04-22T01:50:42.934Z,5.72
2023-04-22T01:53:34.621Z,6.10
2023-04-22T01:55:39.809Z,5.40
2023-04-22T01:57:43.365Z,4.65
2023-04-22T01:59:46.761Z,4.60
2023-04-22T02:01:53.337Z,4.70
2023-04-22T02:03:57.128Z,4.28
2023-04-22T02:06:00.695Z,5.22
2023-04-22T02:08:04.116Z,4.43
2023-04-22T02:10:09.578Z,4.93
2023-04-22T02:12:14.394Z,4.35
2023-04-22T02:14:17.992Z,4.10
2023-04-22T02:16:21.640Z,4.38
2023-04-22T02:18:37.589Z,4.65
2023-04-22T02:20:41.188Z,4.50
2023-04-22T02:22:44.849Z,3.83
2023-04-22T02:24:48.733Z,4.43
2023-04-22T02:26:52.584Z,4.20
2023-04-22T02:29:09.359Z,4.68
2023-04-22T02:31:13.185Z,4.25
2023-04-22T02:33:16.819Z,4.88
2023-04-22T02:35:20.468Z,4.22
2023-04-22T02:37:24.053Z,4.18
2023-04-22T02:39:27.646Z,4.00
2023-04-22T02:41:31.244Z,4.68
2023-04-22T02:43:35.203Z,4.22
2023-04-22T02:45:56.119Z,4.82
2023-04-22T02:47:59.695Z,3.97
2023-04-22T02:50:03.860Z,4.80
2023-04-22T02:52:07.555Z,4.80
2023-04-22T02:54:11.061Z,4.45
2023-04-22T02:56:17.171Z,4.53
2023-04-22T02:58:20.894Z,4.50
2023-04-22T03:00:24.706Z,4.35
2023-04-22T03:02:29.936Z,4.13
2023-04-22T03:08:00.000Z,4.30
2023-04-22T03:10:03.516Z,4.60
2023-04-22T03:12:07.099Z,4.70
2023-04-22T03:17:26.873Z,4.55
2023-04-22T03:19:32.002Z,4.25
2023-04-22T03:21:35.536Z,4.30
2023-04-22T03:23:39.284Z,4.53
2023-04-22T03:25:42.696Z,4.30
2023-04-22T03:27:46.223Z,4.65
2023-04-22T03:29:49.827Z,4.72
2023-04-22T03:35:11.011Z,4.35
2023-04-22T03:37:14.482Z,4.90
2023-04-22T03:39:17.883Z,5.43
2023-04-22T03:41:21.501Z,4.28
2023-04-22T03:43:25.396Z,4.78
2023-04-22T03:45:28.844Z,4.65
2023-04-22T03:51:00.059Z,4.43
2023-04-22T03:53:03.932Z,4.60
2023-04-22T03:55:08.302Z,4.60
2023-04-22T03:57:11.844Z,4.55
2023-04-22T03:59:15.490Z,4.68
2023-04-22T04:01:19.504Z,4.53
2023-04-22T04:04:33.570Z,4.47
2023-04-22T04:06:39.186Z,4.30
2023-04-22T04:08:42.784Z,3.95
2023-04-22T04:10:46.340Z,4.30
2023-04-22T04:12:50.262Z,4.47
2023-04-22T04:14:54.117Z,4.40
2023-04-22T04:16:58.751Z,4.43
2023-04-22T04:19:02.288Z,4.25
2023-04-22T04:21:06.356Z,3.88
2023-04-22T04:26:38.051Z,3.78
2023-04-22T04:28:41.794Z,3.50
2023-04-22T04:30:45.423Z,3.42
2023-04-22T04:32:48.800Z,3.60
2023-04-22T04:35:02.346Z,3.17
2023-04-22T04:37:06.225Z,3.25
2023-04-22T04:39:09.814Z,3.63
2023-04-22T04:41:14.664Z,3.80
2023-04-22T04:43:19.931Z,3.72
2023-04-22T04:45:23.472Z,4.03
2023-04-22T04:47:26.969Z,3.00
2023-04-22T04:49:31.805Z,3.67
2023-04-22T04:51:35.384Z,3.55
2023-04-22T04:53:49.369Z,2.80
2023-04-22T04:55:52.951Z,3.15
2023-04-22T04:57:56.512Z,3.00
2023-04-22T05:00:01.952Z,3.20
2023-04-22T05:02:05.817Z,2.85
2023-04-22T05:04:09.567Z,2.88
2023-04-22T05:06:13.199Z,3.00
2023-04-22T05:08:16.912Z,3.13
2023-04-22T05:10:20.668Z,2.70
2023-04-22T05:13:04.240Z,2.78
2023-04-22T05:15:10.492Z,2.70
2023-04-22T05:17:14.598Z,2.90
2023-04-22T05:19:18.163Z,3.60
2023-04-22T05:21:21.798Z,3.03
2023-04-22T05:23:25.329Z,2.90
2023-04-22T05:25:28.851Z,2.83
2023-04-22T05:27:35.204Z,2.90
2023-04-22T05:29:48.323Z,3.10
2023-04-22T05:31:53.561Z,3.10
2023-04-22T05:33:57.448Z,3.00
2023-04-22T05:36:01.038Z,3.10
2023-04-22T05:38:12.462Z,3.35
2023-04-22T05:40:16.096Z,2.67
2023-04-22T05:42:19.948Z,2.85
2023-04-22T05:44:23.729Z,3.08
2023-04-22T05:46:33.891Z,3.30
2023-04-22T05:48:39.166Z,2.70
2023-04-22T05:50:42.789Z,2.63
2023-04-22T05:52:46.285Z,2.67
2023-04-22T05:54:50.147Z,2.78
2023-04-22T05:56:53.936Z,2.85
2023-04-22T05:58:57.580Z,2.88
2023-04-22T06:01:01.351Z,2.80
2023-04-22T06:03:05.714Z,3.10
2023-04-22T06:05:11.763Z,3.05
2023-04-22T06:07:15.779Z,2.90
2023-04-22T06:09:20.909Z,2.90
2023-04-22T06:11:24.452Z,3.13
2023-04-22T06:13:27.984Z,3.13
2023-04-22T06:15:31.591Z,2.67
2023-04-22T06:17:35.222Z,2.65
2023-04-22T06:19:39.476Z,2.97
2023-04-22T06:21:44.814Z,3.03
2023-04-22T06:23:48.399Z,2.90
2023-04-22T06:25:52.017Z,3.15
2023-04-22T06:27:55.578Z,3.10
2023-04-22T06:29:59.380Z,2.92
2023-04-22T06:32:03.906Z,3.22
2023-04-22T06:34:07.727Z,3.85
2023-04-22T06:36:11.970Z,3.65
2023-04-22T06:38:17.542Z,4.35
2023-04-22T06:40:21.403Z,3.80
2023-04-22T06:42:25.239Z,3.85
2023-04-22T06:44:29.008Z,3.88
2023-04-22T06:46:33.134Z,4.22
2023-04-22T06:48:36.701Z,3.53
2023-04-22T06:50:40.405Z,3.40
2023-04-22T06:52:44.003Z,3.42
2023-04-22T06:54:49.320Z,3.67
2023-04-22T06:56:53.262Z,3.72
2023-04-22T06:58:57.301Z,3.58
2023-04-22T07:01:01.113Z,4.00
2023-04-22T07:03:04.803Z,4.32
2023-04-22T07:05:09.309Z,4.05
2023-04-22T07:07:12.943Z,3.95
2023-04-22T07:09:16.536Z,3.20
2023-04-22T07:11:21.582Z,3.53
2023-04-22T07:13:27.243Z,3.47
2023-04-22T07:15:31.207Z,3.05
2023-04-22T07:17:34.771Z,3.00
2023-04-22T07:19:38.725Z,3.17
2023-04-22T07:21:42.770Z,3.60
2023-04-22T07:23:46.389Z,3.60
2023-04-22T07:25:50.511Z,3.35
2023-04-22T07:27:55.464Z,3.33
2023-04-22T07:29:59.126Z,3.20
2023-04-22T07:32:02.942Z,3.15
2023-04-22T07:34:06.690Z,3.40
2023-04-22T07:36:10.584Z,2.80
2023-04-22T07:38:14.764Z,3.05
2023-04-22T07:40:18.469Z,3.67
2023-04-22T07:42:22.127Z,3.38
2023-04-22T07:44:27.383Z,3.80
2023-04-22T07:46:31.236Z,3.95
2023-04-22T07:48:34.613Z,3.42
2023-04-22T07:50:38.996Z,4.20
2023-04-22T07:52:42.614Z,3.53
2023-04-22T07:54:46.200Z,4.03
2023-04-22T07:56:49.903Z,3.63
2023-04-22T07:58:53.349Z,4.25
2023-04-22T08:00:58.641Z,4.10
2023-04-22T08:03:02.333Z,3.45
2023-04-22T08:05:07.278Z,3.55
2023-04-22T08:09:17.980Z,3.95
2023-04-22T08:11:21.651Z,4.07
2023-04-22T08:13:25.716Z,3.70
2023-04-22T08:15:29.743Z,4.13
2023-04-22T08:17:34.637Z,3.92
2023-04-22T08:19:38.676Z,4.00
2023-04-22T08:21:43.114Z,4.53
2023-04-22T08:23:47.332Z,4.18
2023-04-22T08:25:51.633Z,3.83
2023-04-22T08:27:55.409Z,3.60
2023-04-22T08:29:59.091Z,3.97
2023-04-22T08:32:02.747Z,3.85
2023-04-22T08:34:07.878Z,3.97
2023-04-22T08:36:11.781Z,3.78
2023-04-22T08:38:15.770Z,3.78
2023-04-22T08:40:19.408Z,3.88
2023-04-22T08:42:23.200Z,4.20
2023-04-22T08:44:27.106Z,3.72
2023-04-22T08:46:31.103Z,3.50
2023-04-22T08:48:35.138Z,3.45
2023-04-22T08:50:40.836Z,4.07
2023-04-22T08:52:44.890Z,3.75
2023-04-22T08:54:48.564Z,3.50
2023-04-22T08:56:52.508Z,3.30
2023-04-22T08:58:56.363Z,3.92
2023-04-22T09:01:01.034Z,3.80
2023-04-22T09:03:04.757Z,3.42
2023-04-22T09:05:09.353Z,3.40
2023-04-22T09:07:15.576Z,3.42
2023-04-22T09:09:19.038Z,3.45
2023-04-22T09:11:22.631Z,3.30
2023-04-22T09:13:26.738Z,3.30
2023-04-22T09:15:31.078Z,3.15
2023-04-22T09:17:35.254Z,3.67
2023-04-22T09:19:38.977Z,3.10
2023-04-22T09:21:42.689Z,3.08
2023-04-22T09:23:52.371Z,3.25
2023-04-22T09:25:57.827Z,3.17
2023-04-22T09:28:02.249Z,3.05
2023-04-22T09:30:09.500Z,3.17
2023-04-22T09:32:13.561Z,3.45
2023-04-22T09:34:17.400Z,3.13
2023-04-22T09:36:24.621Z,2.92
2023-04-22T09:38:32.993Z,3.13
2023-04-22T09:40:39.226Z,3.33
2023-04-22T09:42:50.025Z,3.20
2023-04-22T09:44:54.004Z,3.40
2023-04-22T09:46:57.954Z,3.38
2023-04-22T09:49:01.600Z,2.92
2023-04-22T09:51:06.677Z,3.00
2023-04-22T09:53:11.074Z,3.40
2023-04-22T09:55:15.573Z,3.50
2023-04-22T09:57:21.528Z,3.03
2023-04-22T09:59:26.237Z,2.90
2023-04-22T10:01:37.845Z,3.28
2023-04-22T10:03:41.538Z,3.53
2023-04-22T10:05:46.047Z,3.38
2023-04-22T10:07:49.713Z,3.35
2023-04-22T10:09:53.521Z,3.33
2023-04-22T10:11:58.397Z,3.17
2023-04-22T10:14:03.856Z,3.67
2023-04-22T10:16:07.934Z,3.75
2023-04-22T10:18:13.325Z,3.30
2023-04-22T10:20:18.506Z,3.97
2023-04-22T10:22:21.916Z,3.40
2023-04-22T10:24:27.599Z,3.60
2023-04-22T10:26:41.822Z,3.72
2023-04-22T10:28:45.669Z,3.70
2023-04-22T10:30:50.812Z,3.75
2023-04-22T10:32:54.727Z,3.85
2023-04-22T10:35:12.449Z,3.42
2023-04-22T10:37:19.060Z,3.60
2023-04-22T10:39:23.472Z,3.50
2023-04-22T10:41:27.377Z,3.92
2023-04-22T10:43:43.277Z,3.55
2023-04-22T10:45:46.830Z,3.60
2023-04-22T10:47:52.015Z,3.90
2023-04-22T10:50:11.236Z,3.55
2023-04-22T10:52:18.779Z,3.30
2023-04-22T10:55:02.687Z,3.40
2023-04-22T10:57:07.008Z,3.47
2023-04-22T10:59:17.647Z,3.40
2023-04-22T11:01:21.104Z,3.47
2023-04-22T11:03:30.605Z,2.83
2023-04-22T11:05:35.861Z,3.35
2023-04-22T11:07:40.944Z,3.10
2023-04-22T11:09:46.689Z,2.80
2023-04-22T11:11:50.321Z,2.38
2023-04-22T11:13:53.981Z,2.75
2023-04-22T11:15:57.653Z,2.55
2023-04-22T11:18:01.537Z,2.50
2023-04-22T11:20:07.857Z,2.72
2023-04-22T11:22:12.278Z,2.83
2023-04-22T11:24:20.950Z,2.55
2023-04-22T11:26:35.629Z,2.30
2023-04-22T11:28:47.741Z,2.33
2023-04-22T11:30:51.522Z,2.30
2023-04-22T11:32:55.771Z,2.80
2023-04-22T11:34:59.573Z,2.30
2023-04-22T11:37:04.701Z,2.15
2023-04-22T11:39:15.216Z,2.55
2023-04-22T11:41:23.865Z,2.47
2023-04-22T11:43:27.567Z,2.22
2023-04-22T11:45:32.336Z,2.70
2023-04-22T11:47:36.147Z,2.22
2023-04-22T11:49:40.406Z,2.30
2023-04-22T11:51:55.189Z,2.38
2023-04-22T11:54:00.547Z,2.25
2023-04-22T11:56:05.225Z,2.28
2023-04-22T11:58:09.529Z,1.77
2023-04-22T12:00:17.560Z,2.33
2023-04-22T12:02:21.381Z,2.10
2023-04-22T12:04:25.096Z,2.20
2023-04-22T12:06:31.891Z,1.80
2023-04-22T12:08:37.091Z,2.50
2023-04-22T12:10:47.067Z,2.42
2023-04-22T12:12:51.118Z,2.00
2023-04-22T12:14:55.276Z,2.03
2023-04-22T12:16:58.948Z,1.88
2023-04-22T12:19:02.921Z,1.95
2023-04-22T12:21:10.928Z,1.98
2023-04-22T12:23:17.602Z,1.70
2023-04-22T12:25:21.841Z,1.70
2023-04-22T12:27:27.095Z,1.73
2023-04-22T12:29:32.072Z,2.00
2023-04-22T12:31:35.755Z,1.67
2023-04-22T12:33:39.447Z,1.83
2023-04-22T12:35:43.281Z,2.03
2023-04-22T12:37:46.844Z,1.73
2023-04-22T12:39:51.413Z,1.70
2023-04-22T12:41:55.334Z,2.10
2023-04-22T12:44:00.522Z,1.90
2023-04-22T12:46:04.776Z,2.00
2023-04-22T12:48:08.886Z,1.75
2023-04-22T12:50:12.857Z,2.35
2023-04-22T12:52:16.680Z,1.73
2023-04-22T12:54:21.128Z,1.80
2023-04-22T12:56:25.293Z,2.00
2023-04-22T12:58:29.406Z,2.10
2023-04-22T13:00:35.060Z,2.55
2023-04-22T13:02:39.130Z,2.83
2023-04-22T13:04:43.561Z,1.90
2023-04-22T13:06:47.429Z,2.10
2023-04-22T13:08:51.473Z,2.20
2023-04-22T13:10:55.523Z,2.00
2023-04-22T13:13:10.212Z,2.00
2023-04-22T13:15:20.730Z,2.20
2023-04-22T13:17:26.569Z,2.10
2023-04-22T13:19:32.125Z,2.17
2023-04-22T13:21:36.097Z,2.30
2023-04-22T13:23:40.274Z,2.13
2023-04-22T13:25:44.364Z,2.20
2023-04-22T13:27:48.099Z,2.28
2023-04-22T13:29:52.234Z,2.50
2023-04-22T13:31:56.508Z,2.35
2023-04-22T13:34:01.778Z,2.55
2023-04-22T13:36:05.949Z,2.22
2023-04-22T13:38:09.693Z,2.13
2023-04-22T13:40:14.264Z,2.08
2023-04-22T13:42:18.092Z,2.30
2023-04-22T13:44:21.978Z,2.03
2023-04-22T13:46:26.661Z,2.00
2023-04-22T13:48:31.417Z,1.80
2023-04-22T13:50:36.948Z,2.33
2023-04-22T13:52:40.787Z,1.98
2023-04-22T13:54:44.669Z,2.38
2023-04-22T13:56:48.489Z,2.03
2023-04-22T13:58:52.726Z,2.20
2023-04-22T14:00:56.892Z,2.13
2023-04-22T14:03:01.067Z,1.88
2023-04-22T14:05:06.100Z,2.50
2023-04-22T14:07:11.884Z,1.80
2023-04-22T14:09:15.702Z,2.67
2023-04-22T14:11:19.321Z,2.10
2023-04-22T14:13:23.929Z,2.03
2023-04-22T14:15:27.512Z,2.28
2023-04-22T14:17:31.344Z,2.05
2023-04-22T14:19:37.740Z,2.10
2023-04-22T14:21:41.581Z,2.00
2023-04-22T14:24:14.212Z,2.28
2023-04-22T14:26:17.678Z,2.05
2023-04-22T14:28:22.172Z,2.40
2023-04-22T14:30:26.131Z,1.90
2023-04-22T14:32:29.912Z,2.20
2023-04-22T14:34:34.216Z,1.65
2023-04-22T14:36:37.933Z,2.08
2023-04-22T14:38:41.550Z,2.13
2023-04-22T14:40:46.714Z,1.83
2023-04-22T14:42:51.407Z,2.10
2023-04-22T14:44:55.977Z,1.90
2023-04-22T14:46:59.936Z,2.00
2023-04-22T14:49:03.813Z,2.13
2023-04-22T14:51:07.543Z,2.15
2023-04-22T14:53:11.683Z,2.40
2023-04-22T14:55:22.561Z,2.20
2023-04-22T14:57:28.997Z,1.88
2023-04-22T14:59:32.944Z,2.30
2023-04-22T15:01:37.605Z,2.13
2023-04-22T15:03:42.355Z,2.20
2023-04-22T15:05:49.407Z,1.98
2023-04-22T15:07:54.165Z,2.00
2023-04-22T15:09:59.038Z,1.92
2023-04-22T15:12:05.182Z,1.80
2023-04-22T15:14:10.720Z,1.95
2023-04-22T15:16:14.932Z,2.10
2023-04-22T15:18:18.697Z,2.28
2023-04-22T15:20:22.342Z,2.10
2023-04-22T15:22:26.174Z,2.20
2023-04-22T15:24:29.688Z,2.25
2023-04-22T15:26:33.666Z,2.42
2023-04-22T15:28:38.693Z,2.58
2023-04-22T15:30:44.346Z,2.30
2023-04-22T15:32:48.168Z,2.40
2023-04-22T15:34:51.878Z,2.40
2023-04-22T15:36:55.767Z,2.00
2023-04-22T15:38:59.589Z,2.20
2023-04-22T15:41:03.707Z,2.60
2023-04-22T15:43:07.805Z,2.20
2023-04-22T15:45:12.377Z,1.90
2023-04-22T15:47:18.309Z,2.17
2023-04-22T15:49:22.206Z,2.20
2023-04-22T15:51:26.140Z,2.20
2023-04-22T15:53:29.848Z,2.10
2023-04-22T15:55:33.550Z,2.20
2023-04-22T15:57:37.504Z,1.95
2023-04-22T15:59:41.733Z,2.08
2023-04-22T16:01:46.473Z,1.83
2023-04-22T16:03:52.348Z,2.53
2023-04-22T16:05:56.205Z,2.08
2023-04-22T16:08:00.184Z,2.35
2023-04-22T16:10:03.707Z,1.80
2023-04-22T16:12:07.588Z,2.22
2023-04-22T16:14:12.439Z,2.15
2023-04-22T16:16:16.017Z,2.17
2023-04-22T16:18:19.681Z,2.58
2023-04-22T16:20:25.116Z,1.92
2023-04-22T16:22:29.141Z,2.10
2023-04-22T16:24:33.090Z,2.08
2023-04-22T16:26:36.841Z,2.30
2023-04-22T16:28:41.003Z,2.08
2023-04-22T16:30:44.703Z,2.20
2023-04-22T16:32:48.395Z,2.30
2023-04-22T16:34:52.039Z,2.03
2023-04-22T16:36:57.293Z,2.35
2023-04-22T16:39:00.919Z,2.20
2023-04-22T16:41:04.633Z,1.65
2023-04-22T16:43:09.436Z,2.15
2023-04-22T16:45:13.470Z,2.10
2023-04-22T16:47:17.341Z,1.98
2023-04-22T16:49:21.205Z,2.08
2023-04-22T16:51:24.958Z,2.20
2023-04-22T16:53:30.041Z,1.95
2023-04-22T16:55:35.716Z,2.00
2023-04-22T16:57:42.123Z,1.90
2023-04-22T16:59:45.935Z,1.95
2023-04-22T17:01:49.595Z,2.20
2023-04-22T17:03:55.875Z,2.13
2023-04-22T17:05:59.963Z,2.35
2023-04-22T17:08:03.672Z,2.17
2023-04-22T17:10:10.081Z,2.00
2023-04-22T17:12:13.649Z,1.98
2023-04-22T17:14:17.265Z,2.10
2023-04-22T17:16:21.243Z,2.30
2023-04-22T17:18:25.325Z,2.10
2023-04-22T17:20:29.064Z,2.30
2023-04-22T17:22:32.755Z,2.28
2023-04-22T17:24:37.054Z,2.20
2023-04-22T17:26:42.478Z,2.50
2023-04-22T17:28:46.315Z,2.38
2023-04-22T17:30:50.164Z,2.30
2023-04-22T17:32:54.137Z,2.30
2023-04-22T17:34:57.881Z,2.30
2023-04-22T17:37:01.853Z,2.50
2023-04-22T17:39:05.546Z,2.10
2023-04-22T17:41:09.425Z,2.88
2023-04-22T17:43:14.444Z,2.22
2023-04-22T17:45:17.925Z,2.70
2023-04-22T17:47:21.807Z,3.10
2023-04-22T17:49:25.550Z,2.33
2023-04-22T17:51:29.276Z,2.50
2023-04-22T17:53:33.871Z,2.22
2023-04-22T17:55:40.017Z,2.60
2023-04-22T17:57:43.731Z,2.83
2023-04-22T17:59:48.907Z,2.50
2023-04-22T18:01:52.828Z,2.50
2023-04-22T18:03:56.808Z,2.20
2023-04-22T18:06:00.533Z,3.00
2023-04-22T18:08:04.560Z,2.67
2023-04-22T18:10:09.654Z,2.83
2023-04-22T18:12:13.367Z,2.67
2023-04-22T18:14:17.229Z,3.10
2023-04-22T18:16:22.397Z,2.60
2023-04-22T18:18:26.621Z,2.53
2023-04-22T18:20:30.182Z,2.65
2023-04-22T18:22:33.832Z,2.83
2023-04-22T18:24:37.499Z,2.75
2023-04-22T18:26:41.170Z,2.30
2023-04-22T18:28:45.242Z,2.40
2023-04-22T18:30:48.807Z,2.97
2023-04-22T18:32:53.990Z,2.55
2023-04-22T18:34:57.706Z,2.75
2023-04-22T18:37:01.830Z,2.60
2023-04-22T18:39:06.367Z,2.50
2023-04-22T18:41:13.150Z,2.55
2023-04-22T18:43:16.779Z,2.80
2023-04-22T18:45:23.129Z,3.08
2023-04-22T18:47:27.384Z,2.38
2023-04-22T18:49:33.907Z,2.53
2023-04-22T18:51:39.267Z,2.17
2023-04-22T18:53:44.188Z,2.08
2023-04-22T18:55:47.797Z,1.77
2023-04-22T18:57:51.700Z,1.83
2023-04-22T18:59:55.882Z,1.77
2023-04-22T19:01:59.739Z,2.20
2023-04-22T19:04:04.331Z,2.42
2023-04-22T19:06:09.665Z,2.20
2023-04-22T19:08:13.227Z,2.05
2023-04-22T19:10:16.728Z,2.35
2023-04-22T19:12:20.205Z,2.13
2023-04-22T19:14:23.726Z,2.35
2023-04-22T19:16:28.130Z,2.80
2023-04-22T19:18:32.163Z,2.15
2023-04-22T19:20:35.680Z,2.20
2023-04-22T19:22:40.815Z,2.67
2023-04-22T19:24:44.446Z,2.60
2023-04-22T19:26:48.113Z,2.70
2023-04-22T19:28:57.078Z,2.38
2023-04-22T19:31:01.198Z,2.50
2023-04-22T19:33:04.892Z,2.85
2023-04-22T19:35:09.117Z,3.15
2023-04-22T19:37:12.609Z,2.38
2023-04-22T19:39:18.283Z,2.50
2023-04-22T19:41:22.058Z,2.35
2023-04-22T19:43:26.491Z,2.22
2023-04-22T19:45:30.557Z,2.30
2023-04-22T19:47:34.769Z,2.28
2023-04-22T19:49:41.153Z,2.75
2023-04-22T19:51:48.620Z,2.40
2023-04-22T19:53:52.565Z,2.40
2023-04-22T19:55:57.586Z,3.00
2023-04-22T19:58:01.238Z,2.60
2023-04-22T20:00:07.080Z,2.53
2023-04-22T20:02:11.595Z,2.75
2023-04-22T20:04:16.208Z,2.85
2023-04-22T20:06:22.295Z,3.10
2023-04-22T20:08:27.092Z,2.58
2023-04-22T20:10:31.456Z,2.50
2023-04-22T20:12:37.052Z,2.63
2023-04-22T20:14:42.046Z,2.78
2023-04-22T20:16:47.889Z,3.05
2023-04-22T20:18:52.508Z,2.97
2023-04-22T20:20:58.617Z,2.80
2023-04-22T20:23:08.170Z,2.50
2023-04-22T20:25:14.012Z,2.72
2023-04-22T20:27:18.060Z,2.63
2023-04-22T20:29:23.444Z,2.55
2023-04-22T20:31:27.684Z,2.92
2023-04-22T20:33:31.462Z,3.03
2023-04-22T20:35:36.121Z,2.90
2023-04-22T20:37:39.938Z,2.85
2023-04-22T20:39:43.745Z,2.75
2023-04-22T20:41:47.463Z,3.05
2023-04-22T20:43:51.130Z,2.80
2023-04-22T20:45:56.534Z,2.78
2023-04-22T20:48:00.597Z,3.13
2023-04-22T20:50:04.502Z,2.97
2023-04-22T20:52:08.763Z,2.63
2023-04-22T20:54:27.949Z,3.10
2023-04-22T20:56:32.683Z,3.22
2023-04-22T20:58:36.291Z,3.25
2023-04-22T21:00:39.885Z,3.20
2023-04-22T21:02:45.130Z,3.25
2023-04-22T21:04:49.102Z,3.08
2023-04-22T21:06:53.502Z,3.50
2023-04-22T21:08:57.301Z,3.20
2023-04-22T21:11:08.729Z,3.13
2023-04-22T21:13:12.618Z,2.97
2023-04-22T21:15:16.933Z,2.92
2023-04-22T21:17:22.439Z,2.95
2023-04-22T21:19:37.228Z,3.33
2023-04-22T21:21:40.712Z,3.70
2023-04-22T21:23:44.852Z,3.72
2023-04-22T21:25:48.706Z,3.55
2023-04-22T21:27:52.739Z,3.60
2023-04-22T21:29:58.769Z,3.28
2023-04-22T21:32:09.242Z,3.50
2023-04-22T21:34:13.329Z,3.53
2023-04-22T21:36:18.266Z,3.45
2023-04-22T21:38:22.095Z,3.53
2023-04-22T21:40:26.123Z,4.10
2023-04-22T21:42:29.939Z,3.78
2023-04-22T21:44:33.406Z,4.07
2023-04-22T21:46:37.530Z,4.00
2023-04-22T21:48:41.091Z,4.03
2023-04-22T21:50:44.794Z,4.15
2023-04-22T21:52:50.480Z,4.18
2023-04-22T21:54:54.056Z,4.30
2023-04-22T21:56:57.914Z,3.88
2023-04-22T21:59:01.647Z,3.95
2023-04-22T22:01:05.246Z,4.22
2023-04-22T22:03:09.023Z,4.53
2023-04-22T22:05:14.634Z,4.22
2023-04-22T22:07:18.148Z,4.18
2023-04-22T22:09:23.111Z,4.72
2023-04-22T22:11:31.389Z,4.55
2023-04-22T22:13:35.184Z,4.75
2023-04-22T22:15:38.918Z,4.55
2023-04-22T22:17:42.795Z,4.85
2023-04-22T22:19:49.643Z,5.15
2023-04-22T22:21:53.502Z,5.03
2023-04-22T22:23:57.785Z,4.70
2023-04-22T22:26:02.718Z,4.90
2023-04-22T22:28:06.336Z,4.30
2023-04-22T22:30:11.026Z,4.75
2023-04-22T22:32:14.706Z,4.53
2023-04-22T22:34:18.237Z,4.35
2023-04-22T22:36:21.736Z,4.80
2023-04-22T22:38:25.384Z,4.72
2023-04-22T22:40:28.914Z,4.53
2023-04-22T22:42:33.787Z,4.22
2023-04-22T22:44:47.746Z,4.40
2023-04-22T22:46:51.198Z,4.47
2023-04-22T22:48:54.726Z,4.82
2023-04-22T22:50:58.536Z,4.82
2023-04-22T22:53:01.978Z,5.07
2023-04-22T22:55:06.239Z,5.40
2023-04-22T22:57:15.087Z,5.38
2023-04-22T22:59:20.052Z,5.63
2023-04-22T23:01:23.993Z,5.22
2023-04-22T23:03:27.915Z,4.93
2023-04-22T23:05:32.104Z,5.00
2023-04-22T23:07:36.052Z,5.05
2023-04-22T23:09:39.521Z,5.63
2023-04-22T23:11:42.996Z,5.13
2023-04-22T23:13:46.678Z,5.38
2023-04-22T23:15:51.493Z,5.60
2023-04-22T23:17:55.169Z,5.13
2023-04-22T23:19:58.972Z,4.95
2023-04-22T23:22:05.112Z,4.97
2023-04-22T23:24:09.285Z,5.05
2023-04-22T23:26:13.561Z,5.00
2023-04-22T23:28:17.493Z,5.18
2023-04-22T23:30:22.102Z,5.72
2023-04-22T23:32:27.694Z,5.10
2023-04-22T23:34:31.227Z,5.65
2023-04-22T23:36:36.722Z,5.22
2023-04-22T23:38:40.478Z,5.32
2023-04-22T23:40:43.975Z,5.38
2023-04-22T23:43:06.351Z,5.25
2023-04-22T23:45:11.203Z,5.03
2023-04-22T23:47:14.819Z,5.85
2023-04-22T23:49:19.614Z,5.22
2023-04-22T23:51:30.837Z,5.32
2023-04-22T23:53:34.376Z,5.45
2023-04-22T23:55:38.641Z,5.25
2023-04-22T23:57:42.723Z,5.72
2023-04-22T23:59:46.638Z,5.53
